KUVA/UVA METAR and TAF weather

Enter ICAO airport designator
Station Type Date Time Source
KUVA METAR 2019/04/25 18:35 UTC NOAA

KUVA 251835Z AUTO 29007KT 10SM CLR 27/14 A2993 RMK AO2 T02660141


Station Type Date Time Source
KUVA Decoded METAR 2019/04/25 18:35 UTC NOAA

Uvalde, Garner Field Airport, TX, United States (KUVA) 29-12-40N 099-44-36W
Apr 25, 2019 - 02:35 PM EDT / 2019.04.25 1835 UTC
Wind: from the WNW (290 degrees) at 8 MPH (7 KT):0
Visibility: 10 mile(s):0
Sky conditions: clear
Temperature: 79.9 F (26.6 C)
Dew Point: 57.4 F (14.1 C)
Relative Humidity: 46%
Pressure (altimeter): 29.93 in. Hg (1013 hPa)
ob: KUVA 251835Z AUTO 29007KT 10SM CLR 27/14 A2993 RMK AO2 T02660141
cycle: 18

Station Type Date Time Source
KUVA TAF UTC NOAA

Error!

Example: see airport list